Time;durP1;ratioP1;P1;durP2;ratioP2;P2;SDS_P1;SDS_P2;PMS_P1;PMS_P2;Temp;Humidity;BMP_temperature;BMP_pressure;BME280_temperature;BME280_humidity;BME280_pressure;Samples;Min_cycle;Max_cycle;Signal;HPM_P1;HPM_P2
2022/11/20 00:01:52;;;;;;;9.85;5.00;;;5.90;99.90;;;;;;7607555;19;20025;-72
2022/11/20 00:04:25;;;;;;;7.40;3.60;;;5.90;99.90;;;;;;7618292;19;20185;-73
2022/11/20 00:06:57;;;;;;;8.40;4.65;;;5.80;99.90;;;;;;7587933;19;20053;-73
2022/11/20 00:09:29;;;;;;;39.95;16.42;;;5.80;99.90;;;;;;7611214;19;20636;-72
2022/11/20 00:12:01;;;;;;;53.65;20.40;;;6.00;99.90;;;;;;7606404;19;20030;-72
2022/11/20 00:14:33;;;;;;;26.10;10.30;;;5.90;99.90;;;;;;7615433;19;20590;-73
2022/11/20 00:17:05;;;;;;;12.85;6.35;;;5.80;99.90;;;;;;7612571;19;20101;-72
2022/11/20 00:19:37;;;;;;;13.70;5.88;;;5.90;99.90;;;;;;7617919;19;20608;-72
2022/11/20 00:22:09;;;;;;;7.70;3.80;;;5.80;99.90;;;;;;7606277;19;21262;-73
2022/11/20 00:24:41;;;;;;;4.15;2.63;;;5.80;99.90;;;;;;7617334;19;20478;-73
2022/11/20 00:27:14;;;;;;;6.95;3.30;;;5.80;99.90;;;;;;7611490;19;20018;-72
2022/11/20 00:29:46;;;;;;;6.35;3.45;;;5.80;99.90;;;;;;7611467;19;20486;-73
2022/11/20 00:32:18;;;;;;;7.40;3.70;;;5.80;99.90;;;;;;7606998;19;20023;-73
2022/11/20 00:34:51;;;;;;;10.52;4.60;;;5.80;99.90;;;;;;7618332;19;20367;-72
2022/11/20 00:37:23;;;;;;;6.07;2.38;;;5.90;99.90;;;;;;7616443;19;20010;-73
2022/11/20 00:39:58;;;;;;;8.43;4.13;;;6.00;99.90;;;;;;7622709;19;20023;-74
2022/11/20 00:42:32;;;;;;;12.20;4.35;;;5.90;99.90;;;;;;7619284;19;20014;-73
2022/11/20 00:45:05;;;;;;;27.83;7.90;;;5.90;99.90;;;;;;7592119;19;20913;-73
2022/11/20 00:47:37;;;;;;;49.53;15.27;;;5.90;99.90;;;;;;7618021;19;20018;-74
2022/11/20 00:50:09;;;;;;;28.05;10.20;;;5.90;99.90;;;;;;7619519;19;20018;-73
2022/11/20 00:52:41;;;;;;;13.80;7.18;;;5.90;99.90;;;;;;7619512;19;20935;-73
2022/11/20 00:55:13;;;;;;;6.82;3.67;;;5.90;99.90;;;;;;7609887;19;20014;-73
2022/11/20 00:57:45;;;;;;;5.85;3.78;;;5.90;99.90;;;;;;7609321;19;20045;-74
2022/11/20 01:00:17;;;;;;;6.47;3.30;;;5.90;99.90;;;;;;7615396;19;20343;-72
2022/11/20 01:02:50;;;;;;;4.30;3.50;;;5.90;99.90;;;;;;7606810;19;20019;-73
2022/11/20 01:05:22;;;;;;;4.43;3.10;;;5.90;99.90;;;;;;7610399;19;20971;-71
2022/11/20 01:07:53;;;;;;;6.18;3.40;;;5.90;99.90;;;;;;7620748;19;20582;-73
2022/11/20 01:10:26;;;;;;;6.65;3.28;;;5.80;99.90;;;;;;7621488;19;20015;-73
2022/11/20 01:16:02;;;;;;;5.20;3.28;;;5.80;99.90;;;;;;7587107;19;20030;-73
2022/11/20 01:18:35;;;;;;;8.05;3.08;;;5.90;99.90;;;;;;7574484;19;20106;-72
2022/11/20 01:21:10;;;;;;;6.18;3.30;;;5.90;99.90;;;;;;7575670;19;20027;-74
2022/11/20 01:23:43;;;;;;;5.20;3.60;;;5.90;99.90;;;;;;7605226;19;20052;-74
2022/11/20 01:26:21;;;;;;;7.05;3.67;;;5.90;99.90;;;;;;7617035;19;20022;-74
2022/11/20 01:28:54;;;;;;;5.55;3.30;;;5.90;99.90;;;;;;7607894;19;20026;-74
2022/11/20 01:31:32;;;;;;;5.95;4.03;;;5.90;99.90;;;;;;7611387;19;20018;-73
2022/11/20 01:34:13;;;;;;;6.13;3.55;;;5.90;99.90;;;;;;7617490;19;20791;-72
2022/11/20 01:36:45;;;;;;;5.72;3.60;;;6.00;99.90;;;;;;7597855;19;20014;-74
2022/11/20 01:39:21;;;;;;;11.23;6.20;;;6.00;99.90;;;;;;7599616;19;20037;-73
2022/11/20 01:44:54;;;;;;;7.00;4.18;;;6.00;99.90;;;;;;7580345;19;20018;-74
2022/11/20 01:47:31;;;;;;;6.00;3.85;;;5.90;99.90;;;;;;7611603;19;20014;-73
2022/11/20 01:50:26;;;;;;;5.75;4.05;;;5.90;99.90;;;;;;7589224;19;20062;-72
2022/11/20 01:53:03;;;;;;;5.28;3.38;;;5.90;99.90;;;;;;7595215;19;20026;-73
2022/11/20 01:55:43;;;;;;;5.75;4.10;;;6.00;99.90;;;;;;7601513;19;20015;-74
2022/11/20 01:58:17;;;;;;;7.35;4.25;;;5.90;99.90;;;;;;7585465;19;20024;-73
2022/11/20 02:00:49;;;;;;;6.13;3.53;;;5.90;99.90;;;;;;7616567;19;20030;-73
2022/11/20 02:03:21;;;;;;;5.35;3.33;;;5.90;99.90;;;;;;7603107;19;20014;-74
2022/11/20 02:05:58;;;;;;;4.88;3.60;;;6.00;99.90;;;;;;7601376;19;20007;-74
2022/11/20 02:08:32;;;;;;;8.07;4.45;;;5.90;99.90;;;;;;7590204;19;20010;-73
2022/11/20 02:11:04;;;;;;;4.55;3.47;;;5.90;99.90;;;;;;7585401;19;21052;-74
2022/11/20 02:13:42;;;;;;;5.85;3.55;;;5.90;99.90;;;;;;7583594;19;20363;-74
2022/11/20 02:16:17;;;;;;;18.20;9.40;;;5.90;99.90;;;;;;7594770;19;20019;-74
2022/11/20 02:18:50;;;;;;;6.72;3.22;;;5.90;99.90;;;;;;7583517;19;20022;-73
2022/11/20 02:22:07;;;;;;;6.22;4.03;;;6.00;99.90;;;;;;7587750;19;20022;-74
2022/11/20 02:24:40;;;;;;;5.55;3.60;;;6.00;99.90;;;;;;7604363;19;20026;-74
2022/11/20 02:27:14;;;;;;;5.68;2.70;;;6.00;99.90;;;;;;7604090;19;20014;-73
2022/11/20 02:29:52;;;;;;;4.97;3.33;;;5.90;99.90;;;;;;7590161;19;20015;-74
2022/11/20 02:32:25;;;;;;;4.97;3.50;;;5.90;99.90;;;;;;7590013;19;20100;-73
2022/11/20 02:34:58;;;;;;;;;;;5.90;99.90;;;;;;7593850;19;20010;-73
2022/11/20 02:37:33;;;;;;;4.68;3.03;;;6.00;99.90;;;;;;7589039;19;21006;-74
2022/11/20 02:40:06;;;;;;;5.43;2.63;;;5.90;99.90;;;;;;7589768;19;20025;-72
2022/11/20 02:42:38;;;;;;;4.77;3.30;;;5.90;99.90;;;;;;7583091;19;20394;-73
2022/11/20 02:45:10;;;;;;;5.03;3.63;;;5.90;99.90;;;;;;7563101;19;20025;-73
2022/11/20 02:47:42;;;;;;;4.68;3.38;;;5.80;99.90;;;;;;7585199;19;22479;-72
2022/11/20 02:50:16;;;;;;;5.63;3.73;;;5.80;99.90;;;;;;7449203;19;2776755;-73
2022/11/20 02:52:48;;;;;;;5.55;3.42;;;5.80;99.90;;;;;;7601715;19;20952;-74
2022/11/20 02:55:20;;;;;;;6.18;3.67;;;5.80;99.90;;;;;;7586906;19;20026;-73
2022/11/20 02:57:52;;;;;;;5.95;4.00;;;5.70;99.90;;;;;;7579380;19;20021;-74
2022/11/20 03:00:24;;;;;;;5.22;3.60;;;5.70;99.90;;;;;;7602939;19;21359;-72
2022/11/20 03:02:56;;;;;;;6.97;4.03;;;5.80;99.90;;;;;;7590109;19;20057;-74
2022/11/20 03:05:28;;;;;;;4.75;3.53;;;5.70;99.90;;;;;;7587780;19;20015;-72
2022/11/20 03:08:01;;;;;;;5.05;3.72;;;5.80;99.90;;;;;;7584045;19;20102;-74
2022/11/20 03:10:33;;;;;;;6.35;3.70;;;5.80;99.90;;;;;;7603730;19;20129;-72
2022/11/20 03:13:05;;;;;;;6.40;3.53;;;5.80;99.90;;;;;;7584115;19;20014;-73
2022/11/20 03:15:38;;;;;;;9.50;3.75;;;5.80;99.90;;;;;;7570869;19;20029;-73
2022/11/20 03:18:10;;;;;;;8.93;4.07;;;5.80;99.90;;;;;;7596172;19;20023;-73
2022/11/20 03:20:42;;;;;;;7.65;3.85;;;5.90;99.90;;;;;;7602196;19;20557;-73
2022/11/20 03:23:14;;;;;;;7.47;3.83;;;5.80;99.90;;;;;;7598489;19;20025;-73
2022/11/20 03:25:46;;;;;;;6.13;4.00;;;5.90;99.90;;;;;;7601113;19;20022;-72
2022/11/20 03:28:18;;;;;;;5.97;3.88;;;5.80;99.90;;;;;;7604764;19;20022;-73
2022/11/20 03:30:50;;;;;;;8.40;4.38;;;5.80;99.90;;;;;;7596768;19;20024;-73
2022/11/20 03:33:22;;;;;;;6.00;3.95;;;5.80;99.90;;;;;;7602150;19;20080;-73
2022/11/20 03:35:54;;;;;;;6.35;4.30;;;5.90;99.90;;;;;;7604021;19;20018;-72
2022/11/20 03:38:30;;;;;;;7.25;4.10;;;5.90;99.90;;;;;;7611429;19;20635;-73
2022/11/20 03:41:18;;;;;;;8.20;4.20;;;5.80;99.90;;;;;;7595529;19;20021;-71
2022/11/20 03:43:56;;;;;;;5.13;3.80;;;5.90;99.90;;;;;;7529084;19;20014;-73
2022/11/20 03:46:29;;;;;;;7.32;3.75;;;5.90;99.90;;;;;;7567395;19;20014;-74
2022/11/20 03:49:01;;;;;;;5.40;3.85;;;5.90;99.90;;;;;;7577024;19;20091;-72
2022/11/20 03:51:35;;;;;;;5.18;3.22;;;6.00;99.90;;;;;;7571352;19;20023;-74
2022/11/20 03:54:08;;;;;;;6.35;3.95;;;6.00;99.90;;;;;;7599554;19;20956;-72
2022/11/20 03:56:40;;;;;;;4.78;3.50;;;6.00;99.90;;;;;;7594339;19;20026;-71
2022/11/20 03:59:12;;;;;;;6.95;4.47;;;6.00;99.90;;;;;;7570287;19;20478;-74
2022/11/20 04:01:44;;;;;;;5.90;3.80;;;5.90;99.90;;;;;;7589545;19;20550;-73
2022/11/20 04:04:20;;;;;;;5.00;3.70;;;5.90;99.90;;;;;;7589881;19;20105;-72
2022/11/20 04:06:52;;;;;;;8.90;4.15;;;6.00;99.90;;;;;;7576767;19;20094;-72
2022/11/20 04:09:25;;;;;;;8.93;4.07;;;5.90;99.90;;;;;;7597736;19;20010;-73
2022/11/20 04:11:57;;;;;;;7.75;3.47;;;5.90;99.90;;;;;;7598073;19;20011;-72
2022/11/20 04:14:29;;;;;;;5.65;3.90;;;5.80;99.90;;;;;;7591072;19;20010;-72
2022/11/20 04:17:03;;;;;;;6.53;4.38;;;5.80;99.90;;;;;;7566843;19;20022;-72
2022/11/20 04:19:35;;;;;;;9.50;4.13;;;5.80;99.90;;;;;;7559296;19;20371;-73
2022/11/20 04:22:08;;;;;;;5.68;3.47;;;5.70;99.90;;;;;;7582965;19;20117;-72
2022/11/20 04:24:40;;;;;;;8.07;3.90;;;5.70;99.90;;;;;;7579192;19;22202;-72
2022/11/20 04:27:13;;;;;;;5.90;3.75;;;5.80;99.90;;;;;;7575342;19;20010;-71
2022/11/20 04:29:48;;;;;;;5.50;3.83;;;5.80;99.90;;;;;;7593257;19;20568;-73
2022/11/20 04:32:20;;;;;;;5.82;4.00;;;5.70;99.90;;;;;;7588048;19;20018;-73
2022/11/20 04:34:52;;;;;;;8.82;3.88;;;5.70;99.90;;;;;;7596123;19;20024;-73
2022/11/20 04:37:25;;;;;;;4.50;3.40;;;5.70;99.90;;;;;;7603301;19;20649;-72
2022/11/20 04:39:57;;;;;;;4.75;3.47;;;5.70;99.90;;;;;;7605929;19;20049;-71
2022/11/20 04:42:29;;;;;;;6.75;3.80;;;5.70;99.90;;;;;;7594690;19;20078;-72
2022/11/20 04:45:07;;;;;;;4.38;3.53;;;5.70;99.90;;;;;;7598320;19;20014;-74
2022/11/20 04:47:42;;;;;;;8.90;4.00;;;5.70;99.90;;;;;;7589800;19;20018;-72
2022/11/20 04:50:15;;;;;;;4.88;4.03;;;5.70;99.90;;;;;;7583079;19;20022;-72
2022/11/20 04:52:47;;;;;;;6.80;3.83;;;5.70;99.90;;;;;;7591769;19;20967;-73
2022/11/20 04:55:19;;;;;;;5.22;3.83;;;5.60;99.90;;;;;;7590332;19;20013;-72
2022/11/20 04:57:54;;;;;;;7.32;4.05;;;5.70;99.90;;;;;;7597039;19;20031;-72
2022/11/20 05:00:26;;;;;;;5.85;3.72;;;5.70;99.90;;;;;;7580066;19;20126;-72
2022/11/20 05:02:58;;;;;;;6.03;4.05;;;5.70;99.90;;;;;;7599869;19;20988;-72
2022/11/20 05:05:30;;;;;;;5.43;3.50;;;5.80;99.90;;;;;;7598916;19;20018;-73
2022/11/20 05:08:03;;;;;;;7.25;4.57;;;5.70;99.90;;;;;;7591594;19;20018;-73
2022/11/20 05:10:35;;;;;;;5.75;3.22;;;5.80;99.90;;;;;;7593903;19;20014;-73
2022/11/20 05:13:07;;;;;;;6.80;3.92;;;5.80;99.90;;;;;;7575950;19;20018;-72
2022/11/20 05:15:39;;;;;;;9.77;4.10;;;5.80;99.90;;;;;;7590314;19;20060;-73
2022/11/20 05:18:11;;;;;;;5.95;3.40;;;5.90;99.90;;;;;;7596597;19;20017;-71
2022/11/20 05:20:43;;;;;;;4.82;3.65;;;5.80;99.90;;;;;;7596983;19;20010;-73
2022/11/20 05:23:15;;;;;;;5.93;4.10;;;5.80;99.90;;;;;;7582594;19;20015;-73
2022/11/20 05:25:48;;;;;;;6.40;3.83;;;5.80;99.90;;;;;;7601421;19;20470;-73
2022/11/20 05:28:23;;;;;;;4.65;3.25;;;5.70;99.90;;;;;;7597616;19;20022;-72
2022/11/20 05:30:56;;;;;;;5.75;3.40;;;5.80;99.90;;;;;;7597683;19;20518;-73
2022/11/20 05:33:28;;;;;;;7.85;3.80;;;5.80;99.90;;;;;;7602889;19;20029;-72
2022/11/20 05:36:01;;;;;;;4.55;3.50;;;5.90;99.90;;;;;;7603650;19;20025;-73
2022/11/20 05:38:33;;;;;;;5.88;3.97;;;5.90;99.90;;;;;;7607102;19;20021;-72
2022/11/20 05:41:11;;;;;;;5.25;3.63;;;5.80;99.90;;;;;;7590788;19;20057;-72
2022/11/20 05:43:45;;;;;;;4.90;3.78;;;5.70;99.90;;;;;;7592375;19;20022;-73
2022/11/20 05:46:19;;;;;;;6.63;3.35;;;5.70;99.90;;;;;;7594023;19;20018;-73
2022/11/20 05:48:58;;;;;;;6.30;3.88;;;5.90;99.90;;;;;;7600462;19;20019;-72
2022/11/20 05:51:30;;;;;;;4.63;3.30;;;5.90;99.90;;;;;;7588235;19;20022;-73
2022/11/20 05:54:02;;;;;;;7.82;4.18;;;6.00;99.90;;;;;;7595203;19;20028;-72
2022/11/20 05:56:35;;;;;;;7.07;4.22;;;5.90;99.90;;;;;;7591681;19;20018;-72
2022/11/20 05:59:07;;;;;;;5.13;3.87;;;6.00;99.90;;;;;;7602089;19;20006;-72
2022/11/20 06:01:39;;;;;;;6.72;4.65;;;5.90;99.90;;;;;;7602641;19;20025;-73
2022/11/20 06:04:11;;;;;;;8.13;4.85;;;5.90;99.90;;;;;;7603966;19;21091;-72
2022/11/20 06:06:43;;;;;;;7.80;5.32;;;5.90;99.90;;;;;;7599215;19;20095;-72
2022/11/20 06:09:15;;;;;;;6.32;4.72;;;5.90;99.90;;;;;;7592876;19;20115;-72
2022/11/20 06:11:47;;;;;;;12.95;5.30;;;5.90;99.90;;;;;;7609665;19;20029;-72
2022/11/20 06:14:19;;;;;;;6.15;3.97;;;5.80;99.90;;;;;;7604098;19;20030;-73
2022/11/20 06:16:51;;;;;;;8.52;4.90;;;5.80;99.90;;;;;;7597588;19;20019;-72
2022/11/20 06:19:23;;;;;;;7.38;4.65;;;5.90;99.90;;;;;;7593707;19;20021;-71
2022/11/20 06:21:55;;;;;;;4.50;2.55;;;5.90;99.90;;;;;;7598456;19;22415;-72
2022/11/20 06:24:28;;;;;;;8.05;5.10;;;6.00;99.90;;;;;;7592248;19;20019;-71
2022/11/20 06:27:00;;;;;;;6.22;4.18;;;5.80;99.90;;;;;;7602124;19;20026;-73
2022/11/20 06:29:32;;;;;;;5.15;3.63;;;5.70;99.90;;;;;;7598400;19;20277;-72
2022/11/20 06:32:05;;;;;;;6.65;4.78;;;5.70;99.90;;;;;;7589243;19;20379;-72
2022/11/20 06:34:37;;;;;;;8.63;4.75;;;5.70;99.90;;;;;;7591284;19;20701;-73
2022/11/20 06:37:09;;;;;;;7.53;4.40;;;5.70;99.90;;;;;;7564054;19;20014;-72
2022/11/20 06:39:41;;;;;;;6.90;4.28;;;5.60;99.90;;;;;;7564635;19;20026;-73
2022/11/20 06:42:13;;;;;;;6.32;4.25;;;5.60;99.90;;;;;;7575781;19;20387;-72
2022/11/20 06:44:45;;;;;;;8.57;4.63;;;5.60;99.90;;;;;;7588960;19;20030;-72
2022/11/20 06:47:18;;;;;;;7.60;4.25;;;5.50;99.90;;;;;;7602507;19;20482;-73
2022/11/20 06:49:50;;;;;;;6.10;3.70;;;5.50;99.90;;;;;;7603351;19;21465;-73
2022/11/20 06:52:22;;;;;;;7.30;4.18;;;5.40;99.90;;;;;;7597528;19;20019;-73
2022/11/20 06:54:54;;;;;;;7.38;4.30;;;5.50;99.90;;;;;;7597371;19;20010;-73
2022/11/20 06:57:26;;;;;;;7.45;4.68;;;5.50;99.90;;;;;;7594167;19;20034;-73
2022/11/20 06:59:58;;;;;;;5.60;4.30;;;5.40;99.90;;;;;;7593999;19;20011;-73
2022/11/20 07:02:30;;;;;;;7.80;4.10;;;5.40;99.90;;;;;;7588475;19;20025;-73
2022/11/20 07:05:02;;;;;;;8.05;4.45;;;5.40;99.90;;;;;;7606199;19;20029;-72
2022/11/20 07:07:34;;;;;;;7.18;4.00;;;5.40;99.90;;;;;;7595363;19;20014;-73
2022/11/20 07:10:07;;;;;;;6.05;4.30;;;5.50;99.90;;;;;;7591246;19;20015;-71
2022/11/20 07:12:39;;;;;;;7.97;4.38;;;5.70;99.90;;;;;;7579540;19;20406;-71
2022/11/20 07:15:12;;;;;;;7.00;4.63;;;5.70;99.90;;;;;;7563960;19;20015;-72
2022/11/20 07:17:44;;;;;;;6.30;3.25;;;5.70;99.90;;;;;;7585813;19;20020;-72
2022/11/20 07:20:16;;;;;;;6.15;3.95;;;5.70;99.90;;;;;;7600110;19;20010;-72
2022/11/20 07:22:54;;;;;;;6.35;4.22;;;5.70;99.90;;;;;;7599762;19;20015;-72
2022/11/20 07:25:27;;;;;;;7.18;4.00;;;5.70;99.90;;;;;;7605005;19;20025;-72
2022/11/20 07:28:00;;;;;;;;;;;5.80;99.90;;;;;;7592426;19;20019;-72
2022/11/20 07:30:32;;;;;;;9.52;3.60;;;5.90;99.90;;;;;;7594320;19;19930;-72
2022/11/20 07:33:04;;;;;;;6.53;4.43;;;5.90;99.90;;;;;;7591464;19;20018;-73
2022/11/20 07:35:37;;;;;;;6.68;3.97;;;5.90;99.90;;;;;;7595964;19;20022;-72
2022/11/20 07:38:09;;;;;;;7.70;4.15;;;5.90;99.90;;;;;;7592103;19;20026;-72
2022/11/20 07:40:41;;;;;;;6.50;4.40;;;5.90;99.90;;;;;;7597845;19;20026;-72
2022/11/20 07:43:13;;;;;;;5.95;4.07;;;5.90;99.90;;;;;;7596464;19;20019;-72
2022/11/20 07:45:46;;;;;;;5.28;3.97;;;5.90;99.90;;;;;;7587660;19;20026;-72
2022/11/20 07:48:18;;;;;;;6.22;4.30;;;5.80;99.90;;;;;;7596466;19;20023;-73
2022/11/20 07:50:55;;;;;;;5.80;4.30;;;5.90;99.90;;;;;;7593193;19;20026;-73
2022/11/20 07:53:27;;;;;;;7.50;4.03;;;6.00;99.90;;;;;;7596575;19;20108;-73
2022/11/20 07:56:00;;;;;;;6.45;4.30;;;6.10;99.90;;;;;;7598781;19;20094;-72
2022/11/20 07:58:34;;;;;;;;;;;6.20;99.90;;;;;;7558606;19;20014;-72
2022/11/20 08:01:07;;;;;;;6.20;3.23;;;6.10;99.90;;;;;;7598076;19;20369;-73
2022/11/20 08:03:39;;;;;;;6.53;3.95;;;6.10;99.90;;;;;;7590130;19;20474;-73
2022/11/20 08:06:11;;;;;;;5.78;3.33;;;6.10;99.90;;;;;;7589136;19;20023;-72
2022/11/20 08:08:44;;;;;;;5.07;3.42;;;6.10;99.90;;;;;;7575281;19;21104;-72
2022/11/20 08:14:12;;;;;;;7.25;3.70;;;6.10;99.90;;;;;;7590730;19;20006;-73
2022/11/20 08:16:47;;;;;;;5.53;2.72;;;6.20;99.90;;;;;;7593267;19;20040;-73
2022/11/20 08:19:19;;;;;;;5.47;3.90;;;6.20;99.90;;;;;;7594895;19;20018;-73
2022/11/20 08:21:52;;;;;;;4.53;3.13;;;6.30;99.90;;;;;;7593232;19;20655;-74
2022/11/20 08:24:26;;;;;;;5.20;3.60;;;6.30;99.90;;;;;;7598623;19;20625;-74
2022/11/20 08:26:59;;;;;;;5.40;3.42;;;6.30;99.90;;;;;;7600220;19;20011;-73
2022/11/20 08:29:31;;;;;;;7.13;3.83;;;6.30;99.90;;;;;;7594658;19;20121;-73
2022/11/20 08:32:03;;;;;;;5.85;3.67;;;6.30;99.90;;;;;;7593979;19;20111;-73
2022/11/20 08:34:35;;;;;;;2.67;1.98;;;6.30;99.90;;;;;;7594638;19;20018;-73
2022/11/20 08:37:07;;;;;;;6.20;3.47;;;6.50;99.90;;;;;;7593542;19;20014;-73
2022/11/20 08:39:39;;;;;;;6.55;3.88;;;6.40;99.90;;;;;;7592097;19;20770;-73
2022/11/20 08:42:11;;;;;;;5.63;3.25;;;6.40;99.90;;;;;;7589089;19;20015;-72
2022/11/20 08:44:44;;;;;;;6.38;3.88;;;6.50;99.90;;;;;;7595707;19;20028;-72
2022/11/20 08:47:16;;;;;;;7.03;3.70;;;6.40;99.90;;;;;;7599382;19;20011;-72
2022/11/20 08:49:48;;;;;;;6.63;3.75;;;6.40;99.90;;;;;;7606598;19;20054;-73
2022/11/20 08:52:20;;;;;;;4.22;3.25;;;6.40;99.90;;;;;;7593970;19;20392;-73
2022/11/20 08:54:52;;;;;;;5.70;2.95;;;6.50;99.90;;;;;;7591933;19;20091;-73
2022/11/20 08:57:24;;;;;;;6.50;3.38;;;6.60;99.90;;;;;;7597296;19;20920;-72
2022/11/20 08:59:56;;;;;;;5.93;3.20;;;6.70;99.90;;;;;;7592839;19;20014;-72
2022/11/20 09:02:37;;;;;;;3.38;2.03;;;6.70;99.90;;;;;;7579110;19;20011;-72
2022/11/20 09:05:10;;;;;;;5.25;3.45;;;6.80;99.90;;;;;;7582296;19;21047;-73
2022/11/20 09:07:42;;;;;;;3.58;2.70;;;6.70;99.90;;;;;;7564197;19;20929;-72
2022/11/20 09:10:14;;;;;;;5.70;3.50;;;6.80;99.90;;;;;;7555801;19;20040;-73
2022/11/20 09:12:56;;;;;;;4.10;2.80;;;6.80;99.90;;;;;;7590078;19;20956;-73
2022/11/20 09:15:28;;;;;;;6.97;5.40;;;7.00;99.90;;;;;;7578623;19;20018;-73
2022/11/20 09:18:02;;;;;;;4.93;2.90;;;6.80;99.90;;;;;;7603595;19;20015;-74
2022/11/20 09:20:35;;;;;;;6.15;3.22;;;6.80;99.90;;;;;;7577682;19;20717;-73
2022/11/20 09:23:07;;;;;;;6.32;3.00;;;6.90;99.90;;;;;;7583752;19;20022;-74
2022/11/20 09:25:39;;;;;;;10.30;4.85;;;6.90;99.90;;;;;;7599082;19;20029;-74
2022/11/20 09:28:11;;;;;;;12.90;6.25;;;7.00;99.90;;;;;;7561413;19;20109;-73
2022/11/20 09:30:44;;;;;;;10.02;5.97;;;6.90;99.90;;;;;;7595842;19;20018;-74
2022/11/20 09:33:17;;;;;;;8.65;5.10;;;6.90;99.90;;;;;;7579332;19;20480;-75
2022/11/20 09:35:49;;;;;;;7.40;4.20;;;6.90;99.90;;;;;;7566644;19;20022;-73
2022/11/20 09:38:21;;;;;;;10.25;5.55;;;7.00;99.90;;;;;;7570181;19;20021;-74
2022/11/20 09:41:16;;;;;;;5.07;3.65;;;7.00;99.50;;;;;;7581825;19;20018;-73
2022/11/20 09:44:07;;;;;;;9.80;4.65;;;7.10;98.90;;;;;;7567126;19;20735;-75
2022/11/20 09:46:55;;;;;;;8.68;3.95;;;7.20;98.50;;;;;;7599351;19;20025;-74
2022/11/20 09:49:59;;;;;;;13.27;7.07;;;7.20;97.70;;;;;;7608379;19;20017;-74
2022/11/20 09:52:49;;;;;;;4.88;3.45;;;7.20;97.70;;;;;;7612038;19;20026;-74
2022/11/20 09:55:21;;;;;;;10.13;5.65;;;7.30;97.00;;;;;;7591942;19;20037;-74
2022/11/20 09:57:54;;;;;;;6.80;3.80;;;7.30;97.20;;;;;;7582808;19;21356;-74
2022/11/20 10:00:28;;;;;;;6.20;3.70;;;7.40;98.00;;;;;;7568837;19;20462;-73
2022/11/20 10:03:06;;;;;;;;;;;7.40;97.40;;;;;;7579061;19;20015;-73
2022/11/20 10:05:46;;;;;;;6.43;2.78;;;7.50;95.80;;;;;;7561261;19;19919;-72
2022/11/20 10:08:30;;;;;;;3.58;2.30;;;7.60;95.50;;;;;;7559429;19;20053;-74
2022/11/20 10:11:19;;;;;;;2.53;1.75;;;7.80;94.10;;;;;;7608024;19;20045;-73
2022/11/20 10:14:42;;;;;;;3.00;2.10;;;7.70;94.30;;;;;;7570005;19;20030;-73
2022/11/20 10:17:14;;;;;;;2.53;1.83;;;7.80;94.20;;;;;;7578334;19;20048;-73
2022/11/20 10:20:15;;;;;;;3.72;2.15;;;8.00;92.90;;;;;;7584172;19;20055;-75
2022/11/20 10:23:00;;;;;;;3.45;1.95;;;8.00;93.40;;;;;;7580011;19;21412;-73
2022/11/20 10:25:46;;;;;;;3.97;2.00;;;8.30;92.60;;;;;;7582450;19;21889;-72
2022/11/20 10:28:24;;;;;;;3.05;1.85;;;8.30;92.00;;;;;;7587286;19;20010;-72
2022/11/20 10:31:08;;;;;;;3.60;2.20;;;8.30;91.60;;;;;;7588397;19;20039;-72
2022/11/20 10:33:45;;;;;;;3.28;2.13;;;8.40;91.90;;;;;;7575811;19;20033;-72
2022/11/20 10:36:44;;;;;;;3.78;2.10;;;8.40;92.30;;;;;;7586755;19;20873;-73
2022/11/20 10:39:30;;;;;;;4.60;2.45;;;8.50;91.70;;;;;;7593145;19;20006;-73
2022/11/20 10:42:02;;;;;;;3.08;2.00;;;8.40;92.00;;;;;;7555538;19;20021;-73
2022/11/20 10:47:30;;;;;;;6.18;2.30;;;8.60;92.20;;;;;;7598430;19;20025;-74
2022/11/20 10:50:05;;;;;;;2.80;2.17;;;8.60;91.00;;;;;;7606705;19;20030;-72
2022/11/20 10:52:48;;;;;;;4.63;1.65;;;8.60;91.30;;;;;;7556426;19;20086;-73
2022/11/20 10:55:40;;;;;;;2.92;2.28;;;8.70;90.60;;;;;;7582020;19;20112;-73
2022/11/20 10:58:33;;;;;;;3.67;2.42;;;8.80;90.30;;;;;;7598611;19;25372;-73
2022/11/20 11:01:15;;;;;;;2.28;1.65;;;8.80;90.20;;;;;;7599028;19;20505;-73
2022/11/20 11:03:48;;;;;;;2.60;1.95;;;8.80;88.60;;;;;;7606419;19;21366;-73
2022/11/20 11:06:36;;;;;;;5.60;2.22;;;8.70;90.30;;;;;;7563644;19;20018;-73
2022/11/20 11:09:29;;;;;;;4.18;1.95;;;8.70;90.90;;;;;;7543288;19;20018;-73
2022/11/20 11:12:01;;;;;;;5.03;1.40;;;8.70;90.10;;;;;;7583274;19;20014;-73
2022/11/20 11:14:44;;;;;;;1.52;1.30;;;8.60;89.40;;;;;;7597757;19;20019;-73
2022/11/20 11:17:33;;;;;;;5.97;1.73;;;8.60;89.60;;;;;;7605152;19;20010;-73
2022/11/20 11:20:26;;;;;;;3.88;2.05;;;8.70;89.90;;;;;;7597409;19;20129;-73
2022/11/20 11:22:59;;;;;;;2.85;1.80;;;8.50;87.70;;;;;;7604302;19;20014;-73
2022/11/20 11:25:33;;;;;;;2.58;1.70;;;8.50;90.00;;;;;;7609781;19;21454;-73
2022/11/20 11:28:17;;;;;;;1.95;1.50;;;8.30;89.10;;;;;;7607710;19;20090;-74
2022/11/20 11:30:50;;;;;;;3.60;1.70;;;8.30;89.20;;;;;;7611080;19;20041;-73
2022/11/20 11:33:25;;;;;;;2.33;1.88;;;8.10;90.40;;;;;;7598392;19;20025;-73
2022/11/20 11:36:00;;;;;;;3.65;2.10;;;8.20;90.90;;;;;;7603167;19;20010;-74
2022/11/20 11:38:41;;;;;;;3.28;2.00;;;8.20;91.40;;;;;;7587675;19;20018;-73
2022/11/20 11:41:18;;;;;;;4.82;2.40;;;8.20;91.60;;;;;;7605456;19;20019;-74
2022/11/20 11:46:54;;;;;;;3.30;2.55;;;8.20;91.20;;;;;;7572774;19;20014;-74
2022/11/20 11:49:26;;;;;;;1.98;1.70;;;8.20;91.30;;;;;;7595517;19;20021;-73
2022/11/20 11:52:08;;;;;;;2.50;1.90;;;8.30;90.40;;;;;;7605108;19;20014;-74
2022/11/20 11:54:54;;;;;;;2.50;2.10;;;8.40;91.70;;;;;;7590711;19;20162;-74
2022/11/20 11:57:54;;;;;;;4.70;2.65;;;9.20;91.20;;;;;;7579375;19;20136;-74
2022/11/20 12:00:26;;;;;;;4.38;1.80;;;9.20;88.40;;;;;;7538228;19;20014;-73
2022/11/20 12:03:13;;;;;;;3.05;1.90;;;9.40;91.10;;;;;;7550156;19;20029;-73
2022/11/20 12:06:09;;;;;;;4.65;1.73;;;9.60;85.70;;;;;;7587615;19;20014;-73
2022/11/20 12:08:53;;;;;;;2.13;1.80;;;9.50;84.70;;;;;;7583558;19;21868;-74
2022/11/20 12:11:58;;;;;;;2.25;1.90;;;9.40;84.30;;;;;;7576831;19;20022;-73
2022/11/20 12:14:36;;;;;;;3.25;1.85;;;9.40;84.10;;;;;;7581074;19;20035;-73
2022/11/20 12:17:13;;;;;;;3.60;2.00;;;9.30;83.20;;;;;;7566650;19;20602;-75
2022/11/20 12:19:45;;;;;;;2.03;1.73;;;9.60;86.70;;;;;;7596252;19;20815;-72
2022/11/20 12:22:43;;;;;;;2.45;1.80;;;9.40;83.60;;;;;;7579562;19;20022;-72
2022/11/20 12:25:25;;;;;;;5.35;2.05;;;9.20;85.30;;;;;;7590082;19;20014;-73
2022/11/20 12:28:28;;;;;;;2.33;1.80;;;9.10;84.70;;;;;;7596919;19;21770;-74
2022/11/20 12:31:09;;;;;;;4.13;2.17;;;8.70;86.20;;;;;;7601224;19;20029;-73
2022/11/20 12:33:59;;;;;;;3.47;2.30;;;8.50;91.30;;;;;;7586999;19;20021;-73
2022/11/20 12:36:54;;;;;;;4.57;2.67;;;8.00;93.40;;;;;;7585892;19;20014;-73
2022/11/20 12:39:39;;;;;;;4.07;1.90;;;7.70;96.70;;;;;;7576752;19;20322;-73
2022/11/20 12:45:40;;;;;;;2.47;1.90;;;7.40;97.80;;;;;;7557582;19;20014;-73
2022/11/20 12:48:40;;;;;;;3.63;2.55;;;7.30;98.20;;;;;;7576830;19;20093;-72
2022/11/20 12:51:26;;;;;;;4.35;2.30;;;7.40;99.90;;;;;;7606757;19;20458;-75
2022/11/20 12:54:04;;;;;;;4.47;2.70;;;7.30;99.90;;;;;;7598572;19;20427;-74
2022/11/20 12:56:39;;;;;;;5.78;2.90;;;7.30;99.90;;;;;;7586268;19;20015;-74
2022/11/20 12:59:48;;;;;;;7.95;3.08;;;7.30;99.90;;;;;;7582772;19;20029;-73
2022/11/20 13:02:35;;;;;;;3.50;2.45;;;7.30;99.90;;;;;;7595935;19;20866;-74
2022/11/20 13:05:19;;;;;;;7.18;2.33;;;7.30;99.90;;;;;;7615149;19;20881;-73
2022/11/20 13:07:53;;;;;;;3.15;2.05;;;7.20;99.90;;;;;;7597124;19;20566;-73
2022/11/20 13:10:58;;;;;;;7.30;3.42;;;7.20;99.90;;;;;;7570255;19;20893;-72
2022/11/20 13:14:14;;;;;;;2.90;2.00;;;7.20;99.90;;;;;;7554510;19;20011;-73
2022/11/20 13:17:02;;;;;;;5.15;2.80;;;7.20;99.90;;;;;;7590291;19;20014;-73
2022/11/20 13:19:37;;;;;;;3.70;2.75;;;7.20;99.90;;;;;;7595639;19;20019;-73
2022/11/20 13:22:09;;;;;;;4.68;2.75;;;7.10;99.90;;;;;;7596011;19;20020;-72
2022/11/20 13:24:51;;;;;;;6.13;2.85;;;7.10;99.90;;;;;;7603215;19;20042;-73
2022/11/20 13:27:24;;;;;;;3.65;2.70;;;7.10;99.90;;;;;;7596751;19;21065;-73
2022/11/20 13:30:20;;;;;;;4.90;2.83;;;7.00;99.90;;;;;;7590887;19;20015;-72
2022/11/20 13:32:54;;;;;;;5.15;3.03;;;6.90;99.90;;;;;;7604187;19;20026;-72
2022/11/20 13:35:33;;;;;;;5.40;3.45;;;6.80;99.90;;;;;;7592258;19;20014;-73
2022/11/20 13:38:08;;;;;;;3.92;3.10;;;6.70;99.90;;;;;;7587690;19;20026;-73
2022/11/20 13:41:31;;;;;;;4.22;3.10;;;6.60;99.90;;;;;;7587948;19;20015;-73
2022/11/20 13:44:23;;;;;;;8.07;2.97;;;6.60;99.90;;;;;;7585293;19;20018;-73
2022/11/20 13:46:56;;;;;;;5.43;3.13;;;6.60;99.90;;;;;;7589013;19;20081;-73
2022/11/20 13:49:38;;;;;;;5.07;2.83;;;6.40;99.90;;;;;;7583926;19;20024;-74
2022/11/20 13:52:47;;;;;;;4.28;2.70;;;6.50;99.90;;;;;;7585204;19;20019;-73
2022/11/20 13:55:25;;;;;;;4.88;3.10;;;6.50;99.90;;;;;;7596642;19;20814;-73
2022/11/20 13:58:03;;;;;;;2.97;2.42;;;6.50;99.90;;;;;;7609284;19;20906;-74
2022/11/20 14:00:54;;;;;;;2.55;2.00;;;6.50;99.90;;;;;;7602905;19;20014;-73
2022/11/20 14:03:31;;;;;;;3.22;2.42;;;6.60;99.90;;;;;;7549772;19;20022;-72
2022/11/20 14:06:32;;;;;;;3.53;2.85;;;6.60;99.90;;;;;;7571588;19;20011;-73